createdAt,value
2022-12-05T00:00:15.264Z,17.37
2022-12-05T00:03:16.771Z,17.36
2022-12-05T00:06:19.008Z,17.35
2022-12-05T00:09:20.588Z,17.35
2022-12-05T00:12:22.084Z,17.35
2022-12-05T00:15:23.610Z,17.36
2022-12-05T00:18:25.103Z,17.35
2022-12-05T00:21:29.268Z,17.36
2022-12-05T00:24:30.737Z,17.35
2022-12-05T00:27:32.978Z,17.36
2022-12-05T00:30:34.790Z,17.35
2022-12-05T00:33:36.634Z,17.35
2022-12-05T00:36:38.231Z,17.34
2022-12-05T00:39:39.803Z,17.32
2022-12-05T00:42:41.479Z,17.34
2022-12-05T00:45:43.014Z,17.33
2022-12-05T00:48:45.067Z,17.33
2022-12-05T00:51:46.593Z,17.32
2022-12-05T00:54:48.158Z,17.31
2022-12-05T00:57:49.647Z,17.29
2022-12-05T01:00:51.141Z,17.27
2022-12-05T01:03:55.799Z,17.28
2022-12-05T01:06:58.687Z,17.26
2022-12-05T01:10:00.235Z,17.25
2022-12-05T01:13:01.767Z,17.23
2022-12-05T01:16:04.449Z,17.23
2022-12-05T01:19:16.554Z,17.23
2022-12-05T01:22:18.035Z,17.20
2022-12-05T01:25:19.504Z,17.17
2022-12-05T01:28:21.110Z,17.16
2022-12-05T01:31:28.713Z,17.16
2022-12-05T01:34:30.304Z,17.14
2022-12-05T01:37:31.817Z,17.12
2022-12-05T01:40:35.914Z,17.10
2022-12-05T01:44:06.242Z,17.10
2022-12-05T01:47:08.119Z,17.08
2022-12-05T01:50:10.791Z,17.05
2022-12-05T01:53:12.538Z,17.04
2022-12-05T01:56:14.384Z,17.04
2022-12-05T01:59:18.554Z,17.02
2022-12-05T02:02:20.531Z,17.01
2022-12-05T02:05:24.782Z,17.02
2022-12-05T02:08:28.616Z,17.02
2022-12-05T02:11:33.224Z,17.00
2022-12-05T02:14:52.756Z,16.98
2022-12-05T02:18:27.993Z,16.98
2022-12-05T02:21:55.721Z,16.98
2022-12-05T02:25:25.165Z,16.96
2022-12-05T02:28:51.495Z,16.95
2022-12-05T02:32:17.904Z,16.94
2022-12-05T02:35:34.350Z,16.89
2022-12-05T02:38:52.814Z,16.91
2022-12-05T02:42:04.962Z,16.89
2022-12-05T02:45:10.143Z,16.88
2022-12-05T02:48:14.073Z,16.87
2022-12-05T02:51:19.975Z,16.87
2022-12-05T02:54:26.294Z,16.88
2022-12-05T02:57:27.921Z,16.85
2022-12-05T03:00:29.419Z,16.85
2022-12-05T03:03:31.935Z,16.85
2022-12-05T03:06:45.424Z,16.87
2022-12-05T03:09:54.926Z,16.86
2022-12-05T03:13:00.575Z,16.85
2022-12-05T03:16:07.977Z,16.85
2022-12-05T03:19:17.978Z,16.84
2022-12-05T03:22:32.403Z,16.84
2022-12-05T03:25:58.588Z,16.82
2022-12-05T03:29:25.984Z,16.81
2022-12-05T03:32:30.475Z,16.80
2022-12-05T03:35:50.755Z,16.79
2022-12-05T03:39:22.270Z,16.78
2022-12-05T03:42:32.262Z,16.77
2022-12-05T03:45:50.088Z,16.79
2022-12-05T03:49:02.175Z,16.78
2022-12-05T03:52:12.234Z,16.78
2022-12-05T03:55:15.229Z,16.79
2022-12-05T03:58:35.939Z,16.80
2022-12-05T04:01:41.004Z,16.79
2022-12-05T04:04:53.044Z,16.80
2022-12-05T04:08:06.474Z,16.80
2022-12-05T04:11:16.445Z,16.81
2022-12-05T04:14:45.263Z,16.82
2022-12-05T04:18:00.593Z,16.83
2022-12-05T04:21:22.519Z,16.84
2022-12-05T04:24:48.928Z,16.86
2022-12-05T04:28:05.623Z,16.88
2022-12-05T04:31:10.191Z,16.90
2022-12-05T04:34:14.777Z,16.89
2022-12-05T04:37:23.429Z,16.92
2022-12-05T04:40:32.144Z,16.94
2022-12-05T04:43:39.154Z,16.95
2022-12-05T04:46:43.712Z,16.98
2022-12-05T04:49:54.211Z,17.01
2022-12-05T04:52:57.949Z,17.02
2022-12-05T04:56:02.116Z,17.02
2022-12-05T04:59:04.345Z,17.02
2022-12-05T05:02:09.022Z,17.04
2022-12-05T05:05:15.163Z,17.03
2022-12-05T05:08:19.165Z,17.02
2022-12-05T05:11:25.243Z,17.04
2022-12-05T05:14:26.714Z,17.02
2022-12-05T05:17:28.161Z,17.03
2022-12-05T05:20:29.789Z,17.02
2022-12-05T05:23:31.264Z,17.01
2022-12-05T05:26:38.302Z,17.01
2022-12-05T05:29:39.811Z,16.98
2022-12-05T05:32:41.275Z,16.97
2022-12-05T05:35:42.899Z,16.97
2022-12-05T05:38:49.979Z,16.97
2022-12-05T05:41:51.429Z,16.93
2022-12-05T05:44:52.953Z,16.93
2022-12-05T05:47:54.412Z,16.91
2022-12-05T05:50:59.392Z,16.91
2022-12-05T05:54:01.004Z,16.89
2022-12-05T05:57:02.531Z,16.89
2022-12-05T06:00:08.446Z,16.88
2022-12-05T06:03:10.173Z,16.88
2022-12-05T06:06:13.515Z,16.89
2022-12-05T06:09:14.979Z,16.89
2022-12-05T06:12:16.441Z,16.91
2022-12-05T06:15:18.061Z,16.91
2022-12-05T06:18:19.522Z,16.92
2022-12-05T06:21:22.043Z,16.93
2022-12-05T06:24:23.543Z,16.93
2022-12-05T06:27:25.392Z,16.94
2022-12-05T06:30:26.937Z,16.95
2022-12-05T06:33:28.583Z,16.97
2022-12-05T06:36:31.094Z,16.97
2022-12-05T06:39:32.692Z,16.97
2022-12-05T06:42:34.166Z,16.97
2022-12-05T06:45:38.217Z,16.98
2022-12-05T06:48:39.870Z,16.97
2022-12-05T06:51:41.375Z,16.96
2022-12-05T06:54:42.917Z,16.93
2022-12-05T06:57:44.376Z,16.92
2022-12-05T07:01:04.452Z,16.92
2022-12-05T07:04:08.140Z,16.93
2022-12-05T07:07:09.675Z,16.90
2022-12-05T07:10:11.670Z,16.88
2022-12-05T07:13:15.685Z,16.87
2022-12-05T07:16:17.544Z,16.86
2022-12-05T07:19:19.043Z,16.84
2022-12-05T07:22:22.280Z,16.83
2022-12-05T07:25:24.750Z,16.80
2022-12-05T07:28:26.277Z,16.78
2022-12-05T07:31:29.731Z,16.78
2022-12-05T07:34:31.278Z,16.77
2022-12-05T07:37:32.780Z,16.77
2022-12-05T07:40:34.320Z,16.77
2022-12-05T07:43:35.803Z,16.76
2022-12-05T07:46:38.088Z,16.76
2022-12-05T07:49:39.592Z,16.74
2022-12-05T07:52:41.642Z,16.74
2022-12-05T07:55:43.091Z,16.73
2022-12-05T07:58:46.572Z,16.72
2022-12-05T08:01:48.133Z,16.70
2022-12-05T08:04:49.676Z,16.68
2022-12-05T08:07:51.265Z,16.66
2022-12-05T08:10:52.755Z,16.66
2022-12-05T08:13:54.748Z,16.66
2022-12-05T08:16:56.332Z,16.64
2022-12-05T08:19:58.054Z,16.65
2022-12-05T08:22:59.716Z,16.65
2022-12-05T08:26:07.347Z,16.66
2022-12-05T08:29:12.952Z,16.66
2022-12-05T08:32:14.480Z,16.65
2022-12-05T08:35:16.454Z,16.65
2022-12-05T08:38:17.966Z,16.65
2022-12-05T08:41:19.439Z,16.65
2022-12-05T08:44:21.050Z,16.64
2022-12-05T08:47:22.512Z,16.63
2022-12-05T08:50:24.020Z,16.62
2022-12-05T08:53:25.989Z,16.61
2022-12-05T08:56:27.785Z,16.60
2022-12-05T08:59:29.315Z,16.58
2022-12-05T09:02:30.898Z,16.59
2022-12-05T09:05:32.710Z,16.57
2022-12-05T09:08:35.363Z,16.57
2022-12-05T09:11:46.107Z,16.58
2022-12-05T09:14:47.583Z,16.56
2022-12-05T09:17:49.081Z,16.56
2022-12-05T09:20:50.563Z,16.57
2022-12-05T09:23:53.337Z,16.58
2022-12-05T09:26:54.869Z,16.57
2022-12-05T09:29:56.529Z,16.58
2022-12-05T09:32:58.075Z,16.57
2022-12-05T09:36:03.014Z,16.58
2022-12-05T09:39:06.362Z,16.57
2022-12-05T09:42:19.942Z,16.57
2022-12-05T09:45:26.671Z,16.56
2022-12-05T09:48:29.105Z,16.55
2022-12-05T09:51:32.164Z,16.54
2022-12-05T09:54:33.714Z,16.53
2022-12-05T09:57:40.392Z,16.53
2022-12-05T10:00:42.610Z,16.53
2022-12-05T10:03:58.543Z,16.55
2022-12-05T10:07:03.832Z,16.53
2022-12-05T10:10:27.710Z,16.56
2022-12-05T10:13:32.233Z,16.56
2022-12-05T10:16:51.553Z,16.59
2022-12-05T10:19:58.157Z,16.57
2022-12-05T10:23:06.536Z,16.59
2022-12-05T10:26:12.572Z,16.59
2022-12-05T10:29:33.745Z,16.60
2022-12-05T10:32:52.470Z,16.59
2022-12-05T10:35:54.783Z,16.57
2022-12-05T10:38:57.257Z,16.56
2022-12-05T10:41:59.335Z,16.55
2022-12-05T10:45:05.212Z,16.55
2022-12-05T10:48:12.375Z,16.53
2022-12-05T10:51:17.686Z,16.51
2022-12-05T10:54:27.103Z,16.51
2022-12-05T10:57:32.522Z,16.51
2022-12-05T11:00:34.018Z,16.51
2022-12-05T11:03:40.858Z,16.53
2022-12-05T11:06:49.223Z,16.54
2022-12-05T11:09:51.758Z,16.53
2022-12-05T11:12:58.754Z,16.54
2022-12-05T11:16:00.587Z,16.55
2022-12-05T11:19:20.099Z,16.56
2022-12-05T11:22:31.112Z,16.55
2022-12-05T11:25:36.582Z,16.55
2022-12-05T11:28:38.135Z,16.55
2022-12-05T11:31:39.711Z,16.52
2022-12-05T11:34:47.840Z,16.53
2022-12-05T11:37:55.855Z,16.53
2022-12-05T11:41:06.502Z,16.50
2022-12-05T11:44:14.653Z,16.51
2022-12-05T11:47:37.295Z,16.49
2022-12-05T11:51:35.828Z,16.48
2022-12-05T11:55:13.844Z,16.48
2022-12-05T11:58:45.486Z,16.48
2022-12-05T12:02:19.033Z,16.49
2022-12-05T12:05:54.964Z,16.50
2022-12-05T12:09:14.389Z,16.50
2022-12-05T12:12:54.913Z,16.52
2022-12-05T12:16:02.785Z,16.53
2022-12-05T12:19:43.785Z,16.52
2022-12-05T12:23:02.252Z,16.56
2022-12-05T12:26:19.092Z,16.56
2022-12-05T12:29:37.926Z,16.54
2022-12-05T12:33:24.025Z,16.53
2022-12-05T12:36:45.231Z,16.51
2022-12-05T12:40:12.926Z,16.51
2022-12-05T12:47:00.549Z,16.46
2022-12-05T12:50:25.227Z,16.45
2022-12-05T12:53:45.381Z,16.45
2022-12-05T12:56:55.411Z,16.45
2022-12-05T13:00:31.113Z,16.48
2022-12-05T13:03:52.033Z,16.48
2022-12-05T13:07:05.734Z,16.48
2022-12-05T13:10:19.335Z,16.52
2022-12-05T13:13:25.821Z,16.51
2022-12-05T13:16:32.727Z,16.53
2022-12-05T13:19:46.604Z,16.53
2022-12-05T13:22:50.436Z,16.56
2022-12-05T13:25:54.562Z,16.57
2022-12-05T13:29:02.051Z,16.60
2022-12-05T13:32:06.628Z,16.62
2022-12-05T13:35:53.912Z,16.65
2022-12-05T13:39:26.079Z,16.67
2022-12-05T13:42:30.414Z,16.66
2022-12-05T13:45:34.524Z,16.67
2022-12-05T13:48:41.056Z,16.67
2022-12-05T13:51:45.838Z,16.67
2022-12-05T13:55:12.127Z,16.70
2022-12-05T13:58:16.441Z,16.71
2022-12-05T14:01:27.316Z,16.73
2022-12-05T14:04:47.131Z,16.76
2022-12-05T14:07:59.776Z,16.77
2022-12-05T14:11:05.631Z,16.77
2022-12-05T14:14:10.265Z,16.80
2022-12-05T14:17:11.994Z,16.81
2022-12-05T14:20:16.574Z,16.82
2022-12-05T14:23:58.286Z,16.84
2022-12-05T14:27:08.076Z,16.85
2022-12-05T14:30:41.123Z,16.85
2022-12-05T14:33:42.695Z,16.84
2022-12-05T14:36:53.345Z,16.87
2022-12-05T14:40:01.950Z,16.87
2022-12-05T14:43:07.459Z,16.87
2022-12-05T14:46:42.458Z,16.87
2022-12-05T14:50:23.261Z,16.89
2022-12-05T14:53:33.426Z,16.88
2022-12-05T14:56:42.116Z,16.89
2022-12-05T14:59:53.553Z,16.91
2022-12-05T15:02:57.240Z,16.91
2022-12-05T15:06:03.679Z,16.93
2022-12-05T15:09:36.125Z,16.94
2022-12-05T15:12:36.914Z,16.96
2022-12-05T15:15:52.293Z,16.98
2022-12-05T15:18:58.735Z,16.99
2022-12-05T15:22:02.486Z,17.01
2022-12-05T15:25:29.995Z,17.02
2022-12-05T15:28:31.603Z,17.03
2022-12-05T15:31:43.535Z,17.04
2022-12-05T15:35:00.131Z,17.04
2022-12-05T15:38:26.965Z,17.05
2022-12-05T15:41:29.126Z,17.04
2022-12-05T15:44:34.438Z,17.04
2022-12-05T15:47:44.233Z,17.08
2022-12-05T15:50:51.118Z,17.10
2022-12-05T15:54:01.014Z,17.13
2022-12-05T15:57:20.102Z,17.17
2022-12-05T16:00:22.192Z,17.19
2022-12-05T16:03:37.922Z,17.24
2022-12-05T16:06:44.415Z,17.27
2022-12-05T16:09:46.347Z,17.30
2022-12-05T16:12:50.352Z,17.31
2022-12-05T16:15:54.319Z,17.32
2022-12-05T16:18:57.315Z,17.34
2022-12-05T16:22:07.862Z,17.37
2022-12-05T16:25:41.898Z,17.39
2022-12-05T16:28:57.207Z,17.39
2022-12-05T16:32:01.516Z,17.38
2022-12-05T16:35:03.701Z,17.39
2022-12-05T16:38:22.597Z,17.39
2022-12-05T16:41:33.118Z,17.37
2022-12-05T16:44:57.492Z,17.36
2022-12-05T16:47:59.800Z,17.32
2022-12-05T16:51:13.627Z,17.31
2022-12-05T16:54:15.194Z,17.28
2022-12-05T16:57:17.301Z,17.26
2022-12-05T17:00:19.264Z,17.24
2022-12-05T17:03:36.448Z,17.21
2022-12-05T17:06:39.257Z,17.19
2022-12-05T17:09:40.801Z,17.16
2022-12-05T17:12:47.532Z,17.16
2022-12-05T17:15:50.083Z,17.14
2022-12-05T17:18:52.581Z,17.11
2022-12-05T17:21:54.323Z,17.11
2022-12-05T17:24:58.751Z,17.12
2022-12-05T17:28:00.413Z,17.10
2022-12-05T17:31:01.933Z,17.09
2022-12-05T17:34:04.575Z,17.10
2022-12-05T17:37:06.058Z,17.11
2022-12-05T17:40:08.060Z,17.13
2022-12-05T17:43:13.934Z,17.15
2022-12-05T17:46:24.639Z,17.17
2022-12-05T17:49:26.436Z,17.17
2022-12-05T17:52:28.755Z,17.16
2022-12-05T17:55:30.830Z,17.17
2022-12-05T17:58:32.961Z,17.19
2022-12-05T18:01:34.572Z,17.19
2022-12-05T18:04:36.698Z,17.19
2022-12-05T18:07:39.564Z,17.20
2022-12-05T18:10:42.762Z,17.20
2022-12-05T18:13:44.238Z,17.17
2022-12-05T18:16:45.788Z,17.17
2022-12-05T18:19:47.276Z,17.17
2022-12-05T18:22:48.786Z,17.18
2022-12-05T18:26:00.247Z,17.19
2022-12-05T18:29:01.910Z,17.16
2022-12-05T18:32:03.610Z,17.16
2022-12-05T18:35:09.994Z,17.16
2022-12-05T18:38:14.354Z,17.15
2022-12-05T18:41:15.839Z,17.14
2022-12-05T18:44:17.377Z,17.15
2022-12-05T18:47:18.973Z,17.15
2022-12-05T18:50:20.463Z,17.15
2022-12-05T18:53:22.347Z,17.15
2022-12-05T18:56:30.547Z,17.17
2022-12-05T18:59:34.198Z,17.15
2022-12-05T19:02:35.805Z,17.16
2022-12-05T19:05:37.780Z,17.16
2022-12-05T19:08:39.343Z,17.15
2022-12-05T19:11:47.330Z,17.15
2022-12-05T19:14:49.305Z,17.15
2022-12-05T19:17:50.751Z,17.15
2022-12-05T19:20:52.297Z,17.14
2022-12-05T19:23:54.355Z,17.15
2022-12-05T19:26:55.896Z,17.14
2022-12-05T19:29:57.663Z,17.13
2022-12-05T19:32:59.241Z,17.13
2022-12-05T19:36:11.367Z,17.14
2022-12-05T19:39:19.110Z,17.13
2022-12-05T19:42:20.614Z,17.11
2022-12-05T19:45:22.074Z,17.11
2022-12-05T19:48:24.555Z,17.10
2022-12-05T19:51:26.402Z,17.09
2022-12-05T19:54:28.010Z,17.08
2022-12-05T19:57:31.446Z,17.08
2022-12-05T20:00:33.075Z,17.08
2022-12-05T20:03:34.956Z,17.06
2022-12-05T20:06:45.097Z,17.07
2022-12-05T20:09:46.606Z,17.05
2022-12-05T20:12:48.098Z,17.04
2022-12-05T20:15:49.567Z,17.05
2022-12-05T20:18:51.137Z,17.05
2022-12-05T20:21:55.109Z,17.05
2022-12-05T20:24:57.141Z,17.04
2022-12-05T20:27:58.774Z,17.05
2022-12-05T20:31:20.513Z,17.05
2022-12-05T20:34:22.079Z,17.04
2022-12-05T20:37:23.530Z,17.02
2022-12-05T20:40:25.012Z,17.01
2022-12-05T20:43:26.984Z,17.02
2022-12-05T20:46:29.191Z,17.01
2022-12-05T20:49:30.660Z,17.01
2022-12-05T20:52:32.133Z,17.02
2022-12-05T20:55:33.646Z,17.03
2022-12-05T20:58:36.668Z,17.01
2022-12-05T21:01:38.764Z,17.02
2022-12-05T21:04:40.995Z,17.02
2022-12-05T21:07:42.532Z,17.01
2022-12-05T21:10:45.365Z,17.04
2022-12-05T21:13:46.909Z,17.03
2022-12-05T21:16:48.488Z,17.03
2022-12-05T21:19:50.097Z,17.04
2022-12-05T21:22:51.662Z,17.03
2022-12-05T21:25:53.868Z,17.04
2022-12-05T21:28:55.712Z,17.03
2022-12-05T21:31:57.190Z,17.01
2022-12-05T21:34:58.680Z,17.02
2022-12-05T21:38:00.773Z,17.00
2022-12-05T21:41:04.024Z,17.00
2022-12-05T21:44:05.789Z,16.99
2022-12-05T21:47:07.276Z,16.98
2022-12-05T21:50:09.275Z,16.98
2022-12-05T21:53:10.824Z,16.95
2022-12-05T21:56:15.523Z,16.95
2022-12-05T21:59:17.133Z,16.92
2022-12-05T22:02:18.643Z,16.92
2022-12-05T22:05:20.219Z,16.91
2022-12-05T22:08:21.752Z,16.88
2022-12-05T22:11:24.532Z,16.88
2022-12-05T22:14:26.182Z,16.86
2022-12-05T22:17:27.650Z,16.84
2022-12-05T22:20:29.123Z,16.81
2022-12-05T22:23:32.555Z,16.81
2022-12-05T22:26:34.033Z,16.80
2022-12-05T22:29:35.810Z,16.80
2022-12-05T22:32:37.336Z,16.81
2022-12-05T22:35:38.827Z,16.79
2022-12-05T22:38:42.913Z,16.78
2022-12-05T22:41:44.886Z,16.77
2022-12-05T22:44:46.375Z,16.75
2022-12-05T22:47:47.824Z,16.73
2022-12-05T22:50:51.707Z,16.74
2022-12-05T22:53:54.139Z,16.70
2022-12-05T22:56:55.639Z,16.69
2022-12-05T22:59:57.407Z,16.67
2022-12-05T23:02:59.306Z,16.66
2022-12-05T23:06:08.247Z,16.65
2022-12-05T23:09:14.407Z,16.63
2022-12-05T23:12:15.905Z,16.62
2022-12-05T23:15:17.440Z,16.62
2022-12-05T23:18:19.007Z,16.61
2022-12-05T23:21:21.721Z,16.61
2022-12-05T23:24:23.228Z,16.60
2022-12-05T23:27:24.731Z,16.60
2022-12-05T23:30:26.197Z,16.60
2022-12-05T23:33:27.709Z,16.60
2022-12-05T23:36:29.189Z,16.60
2022-12-05T23:39:30.713Z,16.59
2022-12-05T23:42:32.176Z,16.58
2022-12-05T23:45:33.637Z,16.55
2022-12-05T23:48:36.039Z,16.56
2022-12-05T23:51:40.092Z,16.54
2022-12-05T23:54:44.642Z,16.55
2022-12-05T23:57:47.178Z,16.52
